sensor_id;sensor_type;location;lat;lon;timestamp;P1;durP1;ratioP1;P2;durP2;ratioP2
18653;SDS011;9456;47.824;16.228;2022-10-22T03:20:17;8.60;;;7.43;;
18653;SDS011;9456;47.824;16.228;2022-10-22T05:36:23;9.13;;;7.83;;
18653;SDS011;9456;47.824;16.228;2022-10-22T05:38:51;10.37;;;8.47;;
18653;SDS011;9456;47.824;16.228;2022-10-22T05:41:20;8.83;;;7.93;;
18653;SDS011;9456;47.824;16.228;2022-10-22T05:43:48;9.27;;;7.73;;
18653;SDS011;9456;47.824;16.228;2022-10-22T05:46:16;9.00;;;8.10;;
18653;SDS011;9456;47.824;16.228;2022-10-22T05:48:47;9.73;;;8.70;;
18653;SDS011;9456;47.824;16.228;2022-10-22T05:51:16;9.33;;;8.43;;
18653;SDS011;9456;47.824;16.228;2022-10-22T05:53:45;10.93;;;8.87;;
18653;SDS011;9456;47.824;16.228;2022-10-22T05:56:13;12.43;;;7.77;;
18653;SDS011;9456;47.824;16.228;2022-10-22T05:58:42;9.40;;;8.40;;
18653;SDS011;9456;47.824;16.228;2022-10-22T06:01:11;10.37;;;7.93;;
18653;SDS011;9456;47.824;16.228;2022-10-22T06:03:38;9.53;;;8.03;;
18653;SDS011;9456;47.824;16.228;2022-10-22T06:06:09;10.43;;;8.00;;
18653;SDS011;9456;47.824;16.228;2022-10-22T06:08:38;9.13;;;8.13;;
18653;SDS011;9456;47.824;16.228;2022-10-22T06:11:08;11.30;;;8.53;;
18653;SDS011;9456;47.824;16.228;2022-10-22T06:13:35;10.77;;;8.27;;
18653;SDS011;9456;47.824;16.228;2022-10-22T06:16:03;9.83;;;7.90;;
18653;SDS011;9456;47.824;16.228;2022-10-22T06:18:30;9.17;;;7.87;;
18653;SDS011;9456;47.824;16.228;2022-10-22T06:21:02;8.93;;;8.03;;
18653;SDS011;9456;47.824;16.228;2022-10-22T06:23:31;9.37;;;8.03;;
18653;SDS011;9456;47.824;16.228;2022-10-22T06:26:02;9.57;;;7.87;;
18653;SDS011;9456;47.824;16.228;2022-10-22T06:28:31;7.83;;;7.03;;
18653;SDS011;9456;47.824;16.228;2022-10-22T06:31:00;8.93;;;7.43;;
18653;SDS011;9456;47.824;16.228;2022-10-22T06:33:28;11.10;;;10.00;;
18653;SDS011;9456;47.824;16.228;2022-10-22T06:38:52;8.07;;;7.27;;
18653;SDS011;9456;47.824;16.228;2022-10-22T06:41:45;6.93;;;6.23;;
18653;SDS011;9456;47.824;16.228;2022-10-22T06:50:28;7.30;;;6.60;;
18653;SDS011;9456;47.824;16.228;2022-10-22T06:53:18;7.87;;;7.07;;
18653;SDS011;9456;47.824;16.228;2022-10-22T06:56:22;11.70;;;7.27;;
18653;SDS011;9456;47.824;16.228;2022-10-22T06:58:53;9.07;;;7.30;;
18653;SDS011;9456;47.824;16.228;2022-10-22T07:01:36;10.23;;;7.33;;
18653;SDS011;9456;47.824;16.228;2022-10-22T07:04:10;8.40;;;7.40;;
18653;SDS011;9456;47.824;16.228;2022-10-22T07:06:56;10.33;;;9.27;;
18653;SDS011;9456;47.824;16.228;2022-10-22T07:09:26;9.27;;;8.37;;
18653;SDS011;9456;47.824;16.228;2022-10-22T07:15:06;8.83;;;7.93;;
18653;SDS011;9456;47.824;16.228;2022-10-22T07:17:46;10.07;;;7.43;;
18653;SDS011;9456;47.824;16.228;2022-10-22T07:20:29;9.83;;;8.00;;
18653;SDS011;9456;47.824;16.228;2022-10-22T07:29:24;8.63;;;7.73;;
18653;SDS011;9456;47.824;16.228;2022-10-22T07:32:12;9.87;;;8.67;;
18653;SDS011;9456;47.824;16.228;2022-10-22T07:34:52;14.13;;;9.43;;
18653;SDS011;9456;47.824;16.228;2022-10-22T07:37:43;11.07;;;8.90;;
18653;SDS011;9456;47.824;16.228;2022-10-22T07:40:34;9.47;;;8.47;;
18653;SDS011;9456;47.824;16.228;2022-10-22T07:43:42;8.77;;;7.70;;
18653;SDS011;9456;47.824;16.228;2022-10-22T07:49:21;9.43;;;8.47;;
18653;SDS011;9456;47.824;16.228;2022-10-22T07:52:07;9.50;;;8.23;;
18653;SDS011;9456;47.824;16.228;2022-10-22T08:00:43;12.73;;;10.10;;
18653;SDS011;9456;47.824;16.228;2022-10-22T08:05:57;13.07;;;11.57;;
18653;SDS011;9456;47.824;16.228;2022-10-22T08:08:24;10.87;;;9.03;;
18653;SDS011;9456;47.824;16.228;2022-10-22T08:10:54;11.10;;;8.23;;
18653;SDS011;9456;47.824;16.228;2022-10-22T08:13:24;9.80;;;8.07;;
18653;SDS011;9456;47.824;16.228;2022-10-22T08:15:55;10.73;;;8.90;;
18653;SDS011;9456;47.824;16.228;2022-10-22T08:18:22;9.73;;;8.50;;
18653;SDS011;9456;47.824;16.228;2022-10-22T08:20:50;10.13;;;8.50;;
18653;SDS011;9456;47.824;16.228;2022-10-22T08:23:20;12.03;;;9.13;;
18653;SDS011;9456;47.824;16.228;2022-10-22T08:25:47;8.73;;;7.83;;
18653;SDS011;9456;47.824;16.228;2022-10-22T08:28:15;8.83;;;7.93;;
18653;SDS011;9456;47.824;16.228;2022-10-22T08:30:43;8.10;;;7.30;;
18653;SDS011;9456;47.824;16.228;2022-10-22T08:33:13;9.60;;;8.30;;
18653;SDS011;9456;47.824;16.228;2022-10-22T08:35:40;9.77;;;8.73;;
18653;SDS011;9456;47.824;16.228;2022-10-22T08:38:07;10.63;;;8.53;;
18653;SDS011;9456;47.824;16.228;2022-10-22T08:40:37;9.70;;;8.70;;
18653;SDS011;9456;47.824;16.228;2022-10-22T08:43:12;10.37;;;7.87;;
18653;SDS011;9456;47.824;16.228;2022-10-22T08:45:42;16.37;;;8.10;;
18653;SDS011;9456;47.824;16.228;2022-10-22T08:48:16;9.50;;;8.50;;
18653;SDS011;9456;47.824;16.228;2022-10-22T08:50:49;9.87;;;8.17;;
18653;SDS011;9456;47.824;16.228;2022-10-22T08:53:18;9.70;;;8.07;;
18653;SDS011;9456;47.824;16.228;2022-10-22T08:55:48;9.97;;;8.73;;
18653;SDS011;9456;47.824;16.228;2022-10-22T08:58:20;9.33;;;8.40;;
18653;SDS011;9456;47.824;16.228;2022-10-22T09:00:51;9.23;;;8.17;;
18653;SDS011;9456;47.824;16.228;2022-10-22T09:03:24;10.17;;;8.77;;
18653;SDS011;9456;47.824;16.228;2022-10-22T09:05:55;10.67;;;8.63;;
18653;SDS011;9456;47.824;16.228;2022-10-22T09:08:24;8.90;;;8.00;;
18653;SDS011;9456;47.824;16.228;2022-10-22T09:10:54;9.60;;;7.67;;
18653;SDS011;9456;47.824;16.228;2022-10-22T09:13:23;8.70;;;7.80;;
18653;SDS011;9456;47.824;16.228;2022-10-22T09:15:51;11.57;;;7.63;;
18653;SDS011;9456;47.824;16.228;2022-10-22T09:18:23;7.73;;;6.90;;
18653;SDS011;9456;47.824;16.228;2022-10-22T09:20:53;8.93;;;8.03;;
18653;SDS011;9456;47.824;16.228;2022-10-22T09:23:26;10.23;;;7.57;;
18653;SDS011;9456;47.824;16.228;2022-10-22T09:25:57;9.73;;;8.57;;
18653;SDS011;9456;47.824;16.228;2022-10-22T09:28:28;9.90;;;7.93;;
18653;SDS011;9456;47.824;16.228;2022-10-22T09:34:07;9.30;;;7.60;;
18653;SDS011;9456;47.824;16.228;2022-10-22T09:39:57;9.40;;;7.97;;
18653;SDS011;9456;47.824;16.228;2022-10-22T10:49:26;14.77;;;9.93;;
18653;SDS011;9456;47.824;16.228;2022-10-22T11:00:34;9.47;;;8.53;;
18653;SDS011;9456;47.824;16.228;2022-10-22T13:24:51;13.73;;;12.33;;
18653;SDS011;9456;47.824;16.228;2022-10-22T13:27:32;14.07;;;12.57;;
18653;SDS011;9456;47.824;16.228;2022-10-22T13:30:23;15.63;;;13.30;;
18653;SDS011;9456;47.824;16.228;2022-10-22T14:12:51;22.87;;;17.93;;
18653;SDS011;9456;47.824;16.228;2022-10-22T14:22:01;23.23;;;20.23;;
18653;SDS011;9456;47.824;16.228;2022-10-22T14:24:54;21.80;;;19.00;;
18653;SDS011;9456;47.824;16.228;2022-10-22T14:30:54;18.53;;;16.60;;
18653;SDS011;9456;47.824;16.228;2022-10-22T14:33:31;21.00;;;18.67;;
18653;SDS011;9456;47.824;16.228;2022-10-22T14:36:01;21.37;;;18.53;;
18653;SDS011;9456;47.824;16.228;2022-10-22T14:38:35;21.27;;;18.57;;
18653;SDS011;9456;47.824;16.228;2022-10-22T14:41:09;21.10;;;17.77;;
18653;SDS011;9456;47.824;16.228;2022-10-22T14:43:59;21.77;;;19.40;;
18653;SDS011;9456;47.824;16.228;2022-10-22T14:47:03;23.00;;;20.33;;
18653;SDS011;9456;47.824;16.228;2022-10-22T14:49:58;27.37;;;22.67;;
18653;SDS011;9456;47.824;16.228;2022-10-22T14:52:40;27.77;;;21.70;;
18653;SDS011;9456;47.824;16.228;2022-10-22T14:55:15;26.63;;;22.53;;
18653;SDS011;9456;47.824;16.228;2022-10-22T14:57:44;30.17;;;23.40;;
18653;SDS011;9456;47.824;16.228;2022-10-22T15:00:13;27.77;;;22.87;;
18653;SDS011;9456;47.824;16.228;2022-10-22T15:02:47;24.63;;;21.47;;
18653;SDS011;9456;47.824;16.228;2022-10-22T15:05:14;23.10;;;20.20;;
18653;SDS011;9456;47.824;16.228;2022-10-22T15:07:42;22.90;;;17.70;;
18653;SDS011;9456;47.824;16.228;2022-10-22T15:10:10;24.30;;;19.80;;
18653;SDS011;9456;47.824;16.228;2022-10-22T15:12:37;21.57;;;18.97;;
18653;SDS011;9456;47.824;16.228;2022-10-22T15:15:05;21.33;;;18.40;;
18653;SDS011;9456;47.824;16.228;2022-10-22T15:17:33;22.10;;;17.77;;
18653;SDS011;9456;47.824;16.228;2022-10-22T15:20:02;22.47;;;18.97;;
18653;SDS011;9456;47.824;16.228;2022-10-22T15:22:32;23.63;;;17.37;;
18653;SDS011;9456;47.824;16.228;2022-10-22T15:25:05;19.80;;;17.27;;
18653;SDS011;9456;47.824;16.228;2022-10-22T15:27:33;19.90;;;17.40;;
18653;SDS011;9456;47.824;16.228;2022-10-22T15:30:04;23.43;;;19.27;;
18653;SDS011;9456;47.824;16.228;2022-10-22T15:32:32;25.70;;;17.23;;
18653;SDS011;9456;47.824;16.228;2022-10-22T15:35:07;23.73;;;18.03;;
18653;SDS011;9456;47.824;16.228;2022-10-22T15:37:39;22.67;;;18.10;;
18653;SDS011;9456;47.824;16.228;2022-10-22T15:40:09;22.23;;;18.47;;
18653;SDS011;9456;47.824;16.228;2022-10-22T15:42:37;23.10;;;18.13;;
18653;SDS011;9456;47.824;16.228;2022-10-22T15:45:05;20.70;;;18.47;;
18653;SDS011;9456;47.824;16.228;2022-10-22T15:47:35;22.70;;;20.27;;
18653;SDS011;9456;47.824;16.228;2022-10-22T15:50:07;25.67;;;19.47;;
18653;SDS011;9456;47.824;16.228;2022-10-22T15:52:34;21.17;;;18.70;;
18653;SDS011;9456;47.824;16.228;2022-10-22T15:55:02;22.33;;;17.37;;
18653;SDS011;9456;47.824;16.228;2022-10-22T15:57:31;22.27;;;17.40;;
18653;SDS011;9456;47.824;16.228;2022-10-22T15:59:58;22.60;;;19.20;;
18653;SDS011;9456;47.824;16.228;2022-10-22T16:02:26;21.20;;;18.47;;
18653;SDS011;9456;47.824;16.228;2022-10-22T16:04:54;23.70;;;18.77;;
18653;SDS011;9456;47.824;16.228;2022-10-22T16:07:24;19.67;;;17.57;;
18653;SDS011;9456;47.824;16.228;2022-10-22T16:09:53;21.07;;;17.93;;
18653;SDS011;9456;47.824;16.228;2022-10-22T16:12:21;23.57;;;19.20;;
18653;SDS011;9456;47.824;16.228;2022-10-22T16:14:48;24.07;;;17.90;;
18653;SDS011;9456;47.824;16.228;2022-10-22T16:17:16;20.87;;;18.67;;
18653;SDS011;9456;47.824;16.228;2022-10-22T16:19:44;21.40;;;18.37;;
18653;SDS011;9456;47.824;16.228;2022-10-22T16:22:12;23.47;;;19.70;;
18653;SDS011;9456;47.824;16.228;2022-10-22T16:24:43;23.40;;;19.93;;
18653;SDS011;9456;47.824;16.228;2022-10-22T16:27:10;25.77;;;20.17;;
18653;SDS011;9456;47.824;16.228;2022-10-22T16:29:38;26.60;;;22.17;;
18653;SDS011;9456;47.824;16.228;2022-10-22T16:32:06;25.17;;;20.17;;
18653;SDS011;9456;47.824;16.228;2022-10-22T16:34:36;24.50;;;20.20;;
18653;SDS011;9456;47.824;16.228;2022-10-22T16:37:06;24.80;;;20.27;;
18653;SDS011;9456;47.824;16.228;2022-10-22T16:39:34;24.13;;;19.83;;
18653;SDS011;9456;47.824;16.228;2022-10-22T16:42:04;26.83;;;21.87;;
18653;SDS011;9456;47.824;16.228;2022-10-22T16:44:31;32.67;;;24.17;;
18653;SDS011;9456;47.824;16.228;2022-10-22T16:46:59;33.87;;;23.93;;
18653;SDS011;9456;47.824;16.228;2022-10-22T16:49:28;31.07;;;24.90;;
18653;SDS011;9456;47.824;16.228;2022-10-22T16:51:59;29.20;;;23.10;;
18653;SDS011;9456;47.824;16.228;2022-10-22T16:54:27;29.87;;;23.60;;
18653;SDS011;9456;47.824;16.228;2022-10-22T16:56:54;30.07;;;23.30;;
18653;SDS011;9456;47.824;16.228;2022-10-22T16:59:23;28.90;;;22.50;;
18653;SDS011;9456;47.824;16.228;2022-10-22T17:01:51;30.73;;;24.40;;
18653;SDS011;9456;47.824;16.228;2022-10-22T17:04:19;31.17;;;24.23;;
18653;SDS011;9456;47.824;16.228;2022-10-22T17:06:47;31.90;;;25.37;;
18653;SDS011;9456;47.824;16.228;2022-10-22T17:09:16;28.53;;;23.27;;
18653;SDS011;9456;47.824;16.228;2022-10-22T17:11:44;29.67;;;23.53;;
18653;SDS011;9456;47.824;16.228;2022-10-22T17:14:12;27.97;;;24.77;;
18653;SDS011;9456;47.824;16.228;2022-10-22T17:16:47;34.27;;;24.20;;
18653;SDS011;9456;47.824;16.228;2022-10-22T17:19:19;33.90;;;24.80;;
18653;SDS011;9456;47.824;16.228;2022-10-22T17:21:47;30.53;;;22.43;;
18653;SDS011;9456;47.824;16.228;2022-10-22T17:24:15;32.27;;;26.17;;
18653;SDS011;9456;47.824;16.228;2022-10-22T17:26:43;31.57;;;24.40;;
18653;SDS011;9456;47.824;16.228;2022-10-22T17:29:12;31.80;;;25.30;;
18653;SDS011;9456;47.824;16.228;2022-10-22T17:31:40;27.70;;;23.57;;
18653;SDS011;9456;47.824;16.228;2022-10-22T17:34:14;28.33;;;24.60;;
18653;SDS011;9456;47.824;16.228;2022-10-22T17:36:42;27.67;;;22.03;;
18653;SDS011;9456;47.824;16.228;2022-10-22T17:39:10;27.67;;;23.00;;
18653;SDS011;9456;47.824;16.228;2022-10-22T17:41:40;24.13;;;20.67;;
18653;SDS011;9456;47.824;16.228;2022-10-22T17:44:12;24.70;;;20.00;;
18653;SDS011;9456;47.824;16.228;2022-10-22T17:46:40;25.03;;;21.03;;
18653;SDS011;9456;47.824;16.228;2022-10-22T17:49:11;25.60;;;21.17;;
18653;SDS011;9456;47.824;16.228;2022-10-22T17:51:40;28.80;;;20.93;;
18653;SDS011;9456;47.824;16.228;2022-10-22T17:54:08;23.73;;;19.70;;
18653;SDS011;9456;47.824;16.228;2022-10-22T17:56:39;25.93;;;21.53;;
18653;SDS011;9456;47.824;16.228;2022-10-22T17:59:16;38.43;;;31.63;;
18653;SDS011;9456;47.824;16.228;2022-10-22T18:01:46;37.50;;;30.13;;
18653;SDS011;9456;47.824;16.228;2022-10-22T18:04:21;37.57;;;29.03;;
18653;SDS011;9456;47.824;16.228;2022-10-22T18:06:53;31.30;;;24.63;;
18653;SDS011;9456;47.824;16.228;2022-10-22T18:09:27;32.50;;;26.23;;
18653;SDS011;9456;47.824;16.228;2022-10-22T18:11:58;40.27;;;32.97;;
18653;SDS011;9456;47.824;16.228;2022-10-22T18:14:34;74.80;;;53.67;;
18653;SDS011;9456;47.824;16.228;2022-10-22T18:17:11;49.37;;;38.73;;
18653;SDS011;9456;47.824;16.228;2022-10-22T18:19:56;50.03;;;36.23;;
18653;SDS011;9456;47.824;16.228;2022-10-22T18:22:25;55.83;;;39.77;;
18653;SDS011;9456;47.824;16.228;2022-10-22T18:24:57;39.47;;;28.40;;
18653;SDS011;9456;47.824;16.228;2022-10-22T18:27:29;45.43;;;31.33;;
18653;SDS011;9456;47.824;16.228;2022-10-22T18:29:59;33.10;;;25.80;;
18653;SDS011;9456;47.824;16.228;2022-10-22T18:32:29;39.13;;;28.20;;
18653;SDS011;9456;47.824;16.228;2022-10-22T18:34:57;36.90;;;27.60;;
18653;SDS011;9456;47.824;16.228;2022-10-22T18:37:29;38.73;;;27.53;;
18653;SDS011;9456;47.824;16.228;2022-10-22T18:40:03;36.00;;;28.10;;
18653;SDS011;9456;47.824;16.228;2022-10-22T18:42:34;36.17;;;28.67;;
18653;SDS011;9456;47.824;16.228;2022-10-22T18:45:06;34.97;;;26.50;;
18653;SDS011;9456;47.824;16.228;2022-10-22T18:47:38;35.60;;;27.07;;
18653;SDS011;9456;47.824;16.228;2022-10-22T18:50:13;48.90;;;37.30;;
18653;SDS011;9456;47.824;16.228;2022-10-22T18:53:03;50.30;;;35.67;;
18653;SDS011;9456;47.824;16.228;2022-10-22T18:55:32;54.80;;;37.20;;
18653;SDS011;9456;47.824;16.228;2022-10-22T18:58:05;52.97;;;35.47;;
18653;SDS011;9456;47.824;16.228;2022-10-22T19:00:40;54.23;;;38.40;;
18653;SDS011;9456;47.824;16.228;2022-10-22T19:03:08;56.93;;;38.97;;
18653;SDS011;9456;47.824;16.228;2022-10-22T19:05:43;45.87;;;35.60;;
18653;SDS011;9456;47.824;16.228;2022-10-22T19:08:18;55.57;;;37.93;;
18653;SDS011;9456;47.824;16.228;2022-10-22T19:10:47;48.27;;;34.97;;
18653;SDS011;9456;47.824;16.228;2022-10-22T19:13:15;44.73;;;33.60;;
18653;SDS011;9456;47.824;16.228;2022-10-22T19:15:45;40.27;;;30.17;;
18653;SDS011;9456;47.824;16.228;2022-10-22T19:18:17;46.03;;;30.87;;
18653;SDS011;9456;47.824;16.228;2022-10-22T19:20:56;37.80;;;27.40;;
18653;SDS011;9456;47.824;16.228;2022-10-22T19:23:28;39.13;;;29.90;;
18653;SDS011;9456;47.824;16.228;2022-10-22T19:26:00;33.20;;;26.13;;
18653;SDS011;9456;47.824;16.228;2022-10-22T19:28:34;48.13;;;33.37;;
18653;SDS011;9456;47.824;16.228;2022-10-22T19:31:03;45.33;;;31.90;;
18653;SDS011;9456;47.824;16.228;2022-10-22T19:33:32;33.33;;;24.47;;
18653;SDS011;9456;47.824;16.228;2022-10-22T19:36:02;36.17;;;26.90;;
18653;SDS011;9456;47.824;16.228;2022-10-22T19:38:34;34.17;;;25.93;;
18653;SDS011;9456;47.824;16.228;2022-10-22T19:41:02;38.43;;;27.80;;
18653;SDS011;9456;47.824;16.228;2022-10-22T19:43:29;40.83;;;29.73;;
18653;SDS011;9456;47.824;16.228;2022-10-22T19:45:57;36.97;;;28.73;;
18653;SDS011;9456;47.824;16.228;2022-10-22T19:48:30;41.77;;;29.43;;
18653;SDS011;9456;47.824;16.228;2022-10-22T19:50:58;23.10;;;18.57;;
18653;SDS011;9456;47.824;16.228;2022-10-22T19:53:27;37.93;;;24.40;;
18653;SDS011;9456;47.824;16.228;2022-10-22T19:56:07;32.23;;;23.83;;
18653;SDS011;9456;47.824;16.228;2022-10-22T19:58:36;27.83;;;21.97;;
18653;SDS011;9456;47.824;16.228;2022-10-22T20:01:04;26.10;;;20.83;;
18653;SDS011;9456;47.824;16.228;2022-10-22T20:03:32;29.93;;;21.87;;
18653;SDS011;9456;47.824;16.228;2022-10-22T20:06:01;26.30;;;20.20;;
18653;SDS011;9456;47.824;16.228;2022-10-22T20:08:29;26.63;;;19.90;;
18653;SDS011;9456;47.824;16.228;2022-10-22T20:11:00;24.77;;;19.10;;
